createdAt,value
2018-09-17T00:00:05.644Z,16.05
2018-09-17T00:01:05.570Z,16.12
2018-09-17T00:02:05.500Z,16.13
2018-09-17T00:03:05.424Z,16.08
2018-09-17T00:04:05.341Z,16.04
2018-09-17T00:05:05.267Z,16.09
2018-09-17T00:06:05.191Z,16.09
2018-09-17T00:07:05.116Z,15.97
2018-09-17T00:08:05.069Z,15.98
2018-09-17T00:09:04.964Z,16.01
2018-09-17T00:10:04.888Z,15.95
2018-09-17T00:11:04.813Z,15.95
2018-09-17T00:12:04.740Z,15.97
2018-09-17T00:13:04.662Z,15.95
2018-09-17T00:14:04.588Z,15.94
2018-09-17T00:15:04.516Z,15.98
2018-09-17T00:16:04.443Z,15.95
2018-09-17T00:17:04.361Z,15.98
2018-09-17T00:18:04.283Z,15.94
2018-09-17T00:19:04.208Z,16.04
2018-09-17T00:20:04.133Z,16.08
2018-09-17T00:21:04.057Z,15.98
2018-09-17T00:22:03.980Z,15.98
2018-09-17T00:23:03.915Z,16.01
2018-09-17T00:24:03.828Z,15.95
2018-09-17T00:25:03.753Z,15.92
2018-09-17T00:26:03.678Z,16.00
2018-09-17T00:27:03.601Z,15.97
2018-09-17T00:28:03.529Z,16.00
2018-09-17T00:29:03.457Z,15.90
2018-09-17T00:30:03.373Z,15.88
2018-09-17T00:31:03.298Z,15.97
2018-09-17T00:32:03.218Z,15.94
2018-09-17T00:33:03.146Z,15.82
2018-09-17T00:34:03.069Z,15.94
2018-09-17T00:35:02.993Z,15.80
2018-09-17T00:36:02.916Z,15.84
2018-09-17T00:37:02.843Z,15.76
2018-09-17T00:38:02.769Z,15.80
2018-09-17T00:39:02.703Z,15.84
2018-09-17T00:40:02.612Z,15.77
2018-09-17T00:41:02.539Z,15.77
2018-09-17T00:42:02.462Z,15.79
2018-09-17T00:43:02.385Z,15.77
2018-09-17T00:44:02.310Z,15.70
2018-09-17T00:45:02.240Z,15.79
2018-09-17T00:46:02.157Z,15.84
2018-09-17T00:47:02.082Z,15.80
2018-09-17T00:48:02.011Z,15.75
2018-09-17T00:49:01.932Z,15.73
2018-09-17T00:50:01.854Z,15.76
2018-09-17T00:51:01.778Z,15.72
2018-09-17T00:52:01.701Z,15.75
2018-09-17T00:53:01.628Z,15.72
2018-09-17T00:54:01.564Z,15.79
2018-09-17T00:55:01.486Z,15.70
2018-09-17T00:56:01.397Z,15.73
2018-09-17T00:57:01.323Z,15.72
2018-09-17T00:58:01.289Z,15.67
2018-09-17T00:59:01.170Z,15.65
2018-09-17T01:00:01.094Z,15.67
2018-09-17T01:01:01.019Z,15.64
2018-09-17T01:02:00.941Z,15.61
2018-09-17T01:03:00.874Z,15.62
2018-09-17T01:04:00.791Z,15.54
2018-09-17T01:05:00.719Z,15.51
2018-09-17T01:06:00.636Z,15.47
2018-09-17T01:07:00.565Z,15.46
2018-09-17T01:08:00.485Z,15.40
2018-09-17T01:09:00.415Z,15.49
2018-09-17T01:10:00.336Z,15.49
2018-09-17T01:11:00.260Z,15.47
2018-09-17T01:12:00.180Z,15.49
2018-09-17T01:13:00.104Z,15.46
2018-09-17T01:14:00.032Z,15.44
2018-09-17T01:14:59.953Z,15.46
2018-09-17T01:15:59.876Z,15.39
2018-09-17T01:16:59.808Z,15.43
2018-09-17T01:17:59.726Z,15.44
2018-09-17T01:18:59.655Z,15.24
2018-09-17T01:19:59.571Z,15.19
2018-09-17T01:20:59.496Z,15.15
2018-09-17T01:21:59.425Z,15.27
2018-09-17T01:22:59.345Z,15.15
2018-09-17T01:23:59.268Z,15.18
2018-09-17T01:24:59.192Z,15.21
2018-09-17T01:25:59.118Z,15.18
2018-09-17T01:26:59.040Z,15.17
2018-09-17T01:27:58.963Z,15.09
2018-09-17T01:28:58.887Z,15.09
2018-09-17T01:29:58.810Z,14.99
2018-09-17T01:30:58.752Z,14.96
2018-09-17T01:31:58.654Z,15.02
2018-09-17T01:32:58.580Z,15.04
2018-09-17T01:33:58.502Z,14.97
2018-09-17T01:34:58.428Z,15.00
2018-09-17T01:35:58.355Z,15.04
2018-09-17T01:36:58.277Z,15.00
2018-09-17T01:37:58.199Z,15.06
2018-09-17T01:38:58.123Z,15.07
2018-09-17T01:39:58.044Z,15.02
2018-09-17T01:40:57.967Z,15.04
2018-09-17T01:41:57.892Z,15.03
2018-09-17T01:42:57.816Z,15.02
2018-09-17T01:43:57.740Z,14.94
2018-09-17T01:44:57.665Z,15.00
2018-09-17T01:45:57.587Z,15.00
2018-09-17T01:46:57.513Z,14.89
2018-09-17T01:47:57.435Z,14.84
2018-09-17T01:48:57.356Z,14.86
2018-09-17T01:49:57.281Z,14.91
2018-09-17T01:50:57.204Z,14.88
2018-09-17T01:51:57.131Z,14.84
2018-09-17T01:52:57.054Z,14.88
2018-09-17T01:53:56.976Z,14.79
2018-09-17T01:54:56.901Z,14.78
2018-09-17T01:55:56.821Z,14.84
2018-09-17T01:56:56.759Z,14.81
2018-09-17T01:57:56.668Z,14.88
2018-09-17T01:58:56.592Z,14.84
2018-09-17T01:59:56.515Z,14.86
2018-09-17T02:00:56.443Z,14.91
2018-09-17T02:01:56.361Z,14.86
2018-09-17T02:02:56.290Z,14.91
2018-09-17T02:03:56.215Z,14.91
2018-09-17T02:04:56.133Z,14.92
2018-09-17T02:05:56.056Z,14.96
2018-09-17T02:06:55.980Z,14.86
2018-09-17T02:07:55.901Z,14.85
2018-09-17T02:08:55.936Z,14.92
2018-09-17T02:09:55.770Z,14.81
2018-09-17T02:10:55.674Z,14.85
2018-09-17T02:11:55.597Z,14.77
2018-09-17T02:12:55.521Z,14.78
2018-09-17T02:13:55.446Z,14.69
2018-09-17T02:14:55.370Z,14.62
2018-09-17T02:15:55.290Z,14.62
2018-09-17T02:16:55.214Z,14.73
2018-09-17T02:17:55.137Z,14.73
2018-09-17T02:18:55.061Z,14.77
2018-09-17T02:19:54.989Z,14.65
2018-09-17T02:20:54.905Z,14.77
2018-09-17T02:21:54.836Z,14.79
2018-09-17T02:22:54.755Z,14.79
2018-09-17T02:23:54.676Z,14.62
2018-09-17T02:24:54.609Z,14.63
2018-09-17T02:25:54.527Z,14.53
2018-09-17T02:26:54.448Z,14.50
2018-09-17T02:27:54.369Z,14.41
2018-09-17T02:28:54.294Z,14.45
2018-09-17T02:29:54.226Z,14.44
2018-09-17T02:30:54.143Z,14.45
2018-09-17T02:31:54.063Z,14.44
2018-09-17T02:32:53.987Z,14.47
2018-09-17T02:33:53.912Z,14.40
2018-09-17T02:34:53.837Z,14.37
2018-09-17T02:35:53.762Z,14.35
2018-09-17T02:36:53.682Z,14.44
2018-09-17T02:37:53.602Z,14.37
2018-09-17T02:38:53.528Z,14.40
2018-09-17T02:39:53.449Z,14.37
2018-09-17T02:40:53.371Z,14.40
2018-09-17T02:41:53.295Z,14.40
2018-09-17T02:42:53.219Z,14.30
2018-09-17T02:43:53.141Z,14.40
2018-09-17T02:44:53.072Z,14.37
2018-09-17T02:45:52.991Z,14.44
2018-09-17T02:46:52.915Z,14.40
2018-09-17T02:47:52.836Z,14.33
2018-09-17T02:48:52.759Z,14.47
2018-09-17T02:49:52.684Z,14.44
2018-09-17T02:50:52.607Z,14.43
2018-09-17T02:51:52.529Z,14.43
2018-09-17T02:52:52.449Z,14.37
2018-09-17T02:53:52.374Z,14.37
2018-09-17T02:54:52.296Z,14.45
2018-09-17T02:55:52.222Z,14.29
2018-09-17T02:56:52.149Z,14.36
2018-09-17T02:57:52.070Z,14.30
2018-09-17T02:58:51.989Z,14.40
2018-09-17T02:59:51.915Z,14.32
2018-09-17T03:00:51.841Z,14.28
2018-09-17T03:01:51.759Z,14.26
2018-09-17T03:02:51.683Z,14.25
2018-09-17T03:03:51.602Z,14.32
2018-09-17T03:04:51.529Z,14.32
2018-09-17T03:05:51.454Z,14.33
2018-09-17T03:06:51.375Z,14.29
2018-09-17T03:07:51.304Z,14.28
2018-09-17T03:08:51.220Z,14.32
2018-09-17T03:09:51.144Z,14.30
2018-09-17T03:10:51.067Z,14.28
2018-09-17T03:11:50.994Z,14.22
2018-09-17T03:12:50.912Z,14.25
2018-09-17T03:13:50.838Z,14.18
2018-09-17T03:14:50.759Z,14.18
2018-09-17T03:15:50.682Z,14.22
2018-09-17T03:16:50.612Z,14.15
2018-09-17T03:17:50.533Z,14.15
2018-09-17T03:18:50.451Z,14.17
2018-09-17T03:19:50.380Z,14.11
2018-09-17T03:20:50.297Z,14.14
2018-09-17T03:21:50.221Z,14.23
2018-09-17T03:22:50.143Z,14.14
2018-09-17T03:23:50.064Z,14.05
2018-09-17T03:24:49.989Z,14.05
2018-09-17T03:25:49.916Z,13.99
2018-09-17T03:26:49.836Z,14.04
2018-09-17T03:27:49.760Z,13.96
2018-09-17T03:28:49.680Z,14.00
2018-09-17T03:29:49.603Z,13.89
2018-09-17T03:30:49.526Z,13.96
2018-09-17T03:31:49.449Z,13.78
2018-09-17T03:32:49.373Z,13.79
2018-09-17T03:33:49.296Z,13.83
2018-09-17T03:34:49.219Z,13.83
2018-09-17T03:35:49.141Z,13.92
2018-09-17T03:36:49.064Z,13.83
2018-09-17T03:37:48.986Z,13.81
2018-09-17T03:38:48.910Z,13.83
2018-09-17T03:39:48.832Z,13.87
2018-09-17T03:40:48.755Z,13.83
2018-09-17T03:41:48.677Z,13.72
2018-09-17T03:42:48.601Z,13.65
2018-09-17T03:43:48.526Z,13.70
2018-09-17T03:44:48.449Z,13.68
2018-09-17T03:45:48.372Z,13.75
2018-09-17T03:46:48.331Z,13.75
2018-09-17T03:47:48.214Z,13.70
2018-09-17T03:48:48.136Z,13.63
2018-09-17T03:49:48.060Z,13.71
2018-09-17T03:50:47.986Z,13.78
2018-09-17T03:51:47.907Z,13.75
2018-09-17T03:52:47.829Z,13.75
2018-09-17T03:53:47.753Z,13.65
2018-09-17T03:54:47.674Z,13.68
2018-09-17T03:55:47.597Z,13.65
2018-09-17T03:56:47.520Z,13.68
2018-09-17T03:57:47.442Z,13.70
2018-09-17T03:58:47.365Z,13.62
2018-09-17T03:59:47.288Z,13.71
2018-09-17T04:00:47.218Z,13.67
2018-09-17T04:01:47.133Z,13.70
2018-09-17T04:02:47.060Z,13.72
2018-09-17T04:03:46.980Z,13.72
2018-09-17T04:04:46.900Z,13.70
2018-09-17T04:05:46.824Z,13.70
2018-09-17T04:06:46.747Z,13.75
2018-09-17T04:07:46.670Z,13.71
2018-09-17T04:08:46.594Z,13.72
2018-09-17T04:09:46.543Z,13.65
2018-09-17T04:10:46.437Z,13.67
2018-09-17T04:11:46.360Z,13.70
2018-09-17T04:12:46.282Z,13.62
2018-09-17T04:13:46.207Z,13.65
2018-09-17T04:14:46.128Z,13.71
2018-09-17T04:15:46.053Z,13.70
2018-09-17T04:16:45.976Z,13.68
2018-09-17T04:17:45.900Z,13.71
2018-09-17T04:18:45.822Z,13.67
2018-09-17T04:19:45.742Z,13.67
2018-09-17T04:20:45.663Z,13.65
2018-09-17T04:21:45.587Z,13.75
2018-09-17T04:22:45.510Z,13.71
2018-09-17T04:23:45.432Z,13.77
2018-09-17T04:24:45.355Z,13.77
2018-09-17T04:25:45.279Z,13.75
2018-09-17T04:26:45.201Z,13.79
2018-09-17T04:27:45.123Z,13.78
2018-09-17T04:28:45.049Z,13.72
2018-09-17T04:29:44.976Z,13.78
2018-09-17T04:30:44.890Z,13.65
2018-09-17T04:31:44.830Z,13.67
2018-09-17T04:32:44.735Z,13.60
2018-09-17T04:33:44.659Z,13.65
2018-09-17T04:34:44.585Z,13.68
2018-09-17T04:35:44.507Z,13.68
2018-09-17T04:36:44.429Z,13.59
2018-09-17T04:37:44.350Z,13.53
2018-09-17T04:38:44.273Z,13.56
2018-09-17T04:39:44.242Z,13.57
2018-09-17T04:40:44.117Z,13.50
2018-09-17T04:41:44.053Z,13.52
2018-09-17T04:42:43.968Z,13.54
2018-09-17T04:43:43.885Z,13.57
2018-09-17T04:44:43.808Z,13.60
2018-09-17T04:45:43.732Z,13.53
2018-09-17T04:46:43.655Z,13.47
2018-09-17T04:47:43.575Z,13.53
2018-09-17T04:48:43.497Z,13.52
2018-09-17T04:49:43.421Z,13.56
2018-09-17T04:50:43.344Z,13.56
2018-09-17T04:51:43.265Z,13.50
2018-09-17T04:52:43.187Z,13.59
2018-09-17T04:53:43.110Z,13.57
2018-09-17T04:54:43.035Z,13.59
2018-09-17T04:55:42.955Z,13.57
2018-09-17T04:56:42.882Z,13.65
2018-09-17T04:57:42.806Z,13.70
2018-09-17T04:58:42.724Z,13.68
2018-09-17T04:59:42.653Z,13.60
2018-09-17T05:00:42.570Z,13.63
2018-09-17T05:01:42.493Z,13.63
2018-09-17T05:02:42.420Z,13.63
2018-09-17T05:03:42.339Z,13.70
2018-09-17T05:04:42.259Z,13.77
2018-09-17T05:05:42.182Z,13.79
2018-09-17T05:06:42.106Z,13.67
2018-09-17T05:07:42.027Z,13.74
2018-09-17T05:08:41.968Z,13.74
2018-09-17T05:09:41.875Z,13.70
2018-09-17T05:10:48.953Z,13.71
2018-09-17T05:12:53.825Z,13.70
2018-09-17T05:15:25.353Z,13.44
2018-09-17T05:16:25.228Z,13.44
2018-09-17T05:18:29.070Z,13.47
2018-09-17T05:19:28.948Z,13.39
2018-09-17T05:21:32.806Z,13.35
2018-09-17T05:22:32.676Z,13.31
2018-09-17T05:24:36.541Z,13.28
2018-09-17T05:25:36.417Z,13.31
2018-09-17T05:26:36.332Z,13.25
2018-09-17T05:27:36.253Z,13.31
2018-09-17T05:28:36.179Z,13.28
2018-09-17T05:29:36.102Z,13.27
2018-09-17T05:30:36.022Z,13.31
2018-09-17T05:31:35.943Z,13.19
2018-09-17T05:32:35.871Z,13.19
2018-09-17T05:33:35.789Z,13.35
2018-09-17T05:34:35.721Z,13.27
2018-09-17T05:35:35.635Z,13.35
2018-09-17T05:36:35.582Z,13.39
2018-09-17T05:37:35.486Z,13.37
2018-09-17T05:38:35.407Z,13.41
2018-09-17T05:39:35.322Z,13.46
2018-09-17T05:40:35.254Z,13.39
2018-09-17T05:41:35.168Z,13.46
2018-09-17T05:42:35.096Z,13.50
2018-09-17T05:43:35.016Z,13.53
2018-09-17T05:44:35.018Z,13.60
2018-09-17T05:45:34.891Z,13.59
2018-09-17T05:46:34.781Z,13.70
2018-09-17T05:47:34.704Z,13.65
2018-09-17T05:48:34.639Z,13.65
2018-09-17T05:49:34.550Z,13.74
2018-09-17T05:50:34.474Z,13.77
2018-09-17T05:51:34.396Z,13.77
2018-09-17T05:52:34.325Z,13.75
2018-09-17T05:53:34.243Z,13.78
2018-09-17T05:54:34.163Z,13.78
2018-09-17T05:55:34.086Z,13.85
2018-09-17T05:56:34.012Z,13.81
2018-09-17T05:57:33.930Z,13.90
2018-09-17T05:58:33.854Z,13.93
2018-09-17T05:59:33.866Z,13.92
2018-09-17T06:00:33.705Z,13.92
2018-09-17T06:01:33.625Z,13.90
2018-09-17T06:02:33.545Z,13.92
2018-09-17T06:03:33.467Z,13.93
2018-09-17T06:04:33.390Z,13.92
2018-09-17T06:05:33.369Z,13.93
2018-09-17T06:06:33.236Z,13.92
2018-09-17T06:07:33.166Z,13.92
2018-09-17T06:08:33.084Z,13.87
2018-09-17T06:09:33.047Z,13.90
2018-09-17T06:10:32.929Z,13.99
2018-09-17T06:11:32.848Z,13.97
2018-09-17T06:12:32.777Z,13.96
2018-09-17T06:13:32.696Z,14.03
2018-09-17T06:14:32.662Z,14.05
2018-09-17T06:15:32.542Z,14.10
2018-09-17T06:16:32.463Z,14.10
2018-09-17T06:17:32.441Z,14.04
2018-09-17T06:18:32.313Z,14.04
2018-09-17T06:19:32.239Z,14.15
2018-09-17T06:20:32.166Z,14.25
2018-09-17T06:21:32.081Z,14.28
2018-09-17T06:22:32.004Z,14.30
2018-09-17T06:23:31.926Z,14.30
2018-09-17T06:24:31.846Z,14.29
2018-09-17T06:25:31.771Z,14.33
2018-09-17T06:26:31.732Z,14.40
2018-09-17T06:27:31.621Z,14.35
2018-09-17T06:28:31.550Z,14.45
2018-09-17T06:29:31.463Z,14.41
2018-09-17T06:30:31.387Z,14.50
2018-09-17T06:31:31.311Z,14.47
2018-09-17T06:32:31.235Z,14.45
2018-09-17T06:33:31.155Z,14.55
2018-09-17T06:34:31.085Z,14.59
2018-09-17T06:35:31.003Z,14.62
2018-09-17T06:36:30.926Z,14.62
2018-09-17T06:37:30.863Z,14.77
2018-09-17T06:38:30.770Z,14.69
2018-09-17T06:39:30.695Z,14.65
2018-09-17T06:40:30.619Z,14.72
2018-09-17T06:41:30.572Z,14.84
2018-09-17T06:42:30.464Z,14.86
2018-09-17T06:43:30.391Z,14.84
2018-09-17T06:44:30.331Z,14.89
2018-09-17T06:45:30.234Z,14.88
2018-09-17T06:46:30.157Z,15.00
2018-09-17T06:47:30.086Z,14.99
2018-09-17T06:48:30.004Z,15.06
2018-09-17T06:49:29.929Z,15.06
2018-09-17T06:50:29.852Z,15.11
2018-09-17T06:51:29.816Z,15.14
2018-09-17T06:52:29.700Z,15.19
2018-09-17T06:53:29.621Z,15.22
2018-09-17T06:54:29.545Z,15.24
2018-09-17T06:55:29.473Z,15.27
2018-09-17T06:56:29.393Z,15.29
2018-09-17T06:57:29.324Z,15.36
2018-09-17T06:58:29.241Z,15.36
2018-09-17T06:59:29.168Z,15.42
2018-09-17T07:00:29.091Z,15.44
2018-09-17T07:01:29.010Z,15.44
2018-09-17T07:02:28.936Z,15.52
2018-09-17T07:03:28.864Z,15.49
2018-09-17T07:04:28.784Z,15.61
2018-09-17T07:05:28.709Z,15.65
2018-09-17T07:06:28.632Z,15.65
2018-09-17T07:07:28.558Z,15.65
2018-09-17T07:08:28.483Z,15.72
2018-09-17T07:09:28.400Z,15.80
2018-09-17T07:10:28.324Z,15.83
2018-09-17T07:11:28.248Z,15.88
2018-09-17T07:12:28.174Z,15.86
2018-09-17T07:13:28.096Z,15.94
2018-09-17T07:14:28.022Z,15.92
2018-09-17T07:15:27.948Z,15.97
2018-09-17T07:16:27.882Z,16.04
2018-09-17T07:17:27.794Z,16.04
2018-09-17T07:18:27.719Z,16.10
2018-09-17T07:19:27.644Z,16.05
2018-09-17T07:20:27.566Z,16.16
2018-09-17T07:21:27.491Z,16.21
2018-09-17T07:22:27.418Z,16.23
2018-09-17T07:23:27.341Z,16.26
2018-09-17T07:24:27.273Z,16.24
2018-09-17T07:25:27.191Z,16.32
2018-09-17T07:26:27.114Z,16.38
2018-09-17T07:27:27.034Z,16.49
2018-09-17T07:28:26.961Z,16.57
2018-09-17T07:29:26.894Z,16.51
2018-09-17T07:30:26.825Z,16.56
2018-09-17T07:31:26.733Z,16.58
2018-09-17T07:32:26.657Z,16.60
2018-09-17T07:33:26.584Z,16.61
2018-09-17T07:34:26.507Z,16.65
2018-09-17T07:35:26.436Z,16.75
2018-09-17T07:36:26.369Z,16.76
2018-09-17T07:37:26.280Z,16.86
2018-09-17T07:38:26.205Z,16.87
2018-09-17T07:39:26.130Z,16.90
2018-09-17T07:40:26.062Z,16.94
2018-09-17T07:41:25.981Z,17.05
2018-09-17T07:42:25.904Z,17.15
2018-09-17T07:43:25.830Z,17.08
2018-09-17T07:44:25.754Z,17.14
2018-09-17T07:45:25.677Z,17.22
2018-09-17T07:46:25.606Z,17.26
2018-09-17T07:47:25.527Z,17.34
2018-09-17T07:48:25.452Z,17.29
2018-09-17T07:49:25.376Z,17.31
2018-09-17T07:50:25.302Z,17.38
2018-09-17T07:51:25.224Z,17.42
2018-09-17T07:52:25.151Z,17.42
2018-09-17T07:53:25.076Z,17.51
2018-09-17T07:54:25.002Z,17.59
2018-09-17T07:55:24.926Z,17.49
2018-09-17T07:56:24.856Z,17.51
2018-09-17T07:57:24.777Z,17.56
2018-09-17T07:58:24.700Z,17.64
2018-09-17T07:59:24.625Z,17.65
2018-09-17T08:00:24.561Z,17.74
2018-09-17T08:01:24.478Z,17.78
2018-09-17T08:02:24.402Z,17.74
2018-09-17T08:03:24.326Z,17.76
2018-09-17T08:04:24.250Z,17.87
2018-09-17T08:05:24.179Z,17.95
2018-09-17T08:06:24.107Z,17.92
2018-09-17T08:07:24.026Z,18.00
2018-09-17T08:08:23.949Z,18.03
2018-09-17T08:09:23.881Z,18.04
2018-09-17T08:10:23.805Z,18.13
2018-09-17T08:11:23.733Z,18.20
2018-09-17T08:12:23.659Z,18.13
2018-09-17T08:13:23.649Z,18.26
2018-09-17T08:14:23.501Z,18.34
2018-09-17T08:15:23.429Z,18.33
2018-09-17T08:16:23.365Z,18.38
2018-09-17T08:17:23.279Z,18.37
2018-09-17T08:18:23.253Z,18.45
2018-09-17T08:19:23.132Z,18.50
2018-09-17T08:20:23.058Z,18.59
2018-09-17T08:21:23.049Z,18.62
2018-09-17T08:22:22.908Z,18.66
2018-09-17T08:23:22.839Z,18.68
2018-09-17T08:24:22.799Z,18.68
2018-09-17T08:25:22.725Z,18.84
2018-09-17T08:26:22.621Z,18.74
2018-09-17T08:27:22.552Z,18.81
2018-09-17T08:28:22.468Z,18.83
2018-09-17T08:29:22.388Z,18.88
2018-09-17T08:30:22.334Z,18.98
2018-09-17T08:31:22.341Z,18.95
2018-09-17T08:32:22.164Z,19.07
2018-09-17T08:33:22.157Z,18.96
2018-09-17T08:34:22.025Z,19.04
2018-09-17T08:35:21.945Z,19.09
2018-09-17T08:36:21.870Z,19.02
2018-09-17T08:37:21.855Z,19.08
2018-09-17T08:38:21.824Z,19.12
2018-09-17T08:39:21.650Z,19.24
2018-09-17T08:40:21.571Z,19.30
2018-09-17T08:41:21.499Z,19.30
2018-09-17T08:42:21.423Z,19.33
2018-09-17T08:43:21.353Z,19.27
2018-09-17T08:44:21.289Z,19.30
2018-09-17T08:45:21.222Z,19.39
2018-09-17T08:46:21.161Z,19.40
2018-09-17T08:47:21.066Z,19.56
2018-09-17T08:48:20.980Z,19.54
2018-09-17T08:49:20.908Z,19.54
2018-09-17T08:50:20.834Z,19.54
2018-09-17T08:51:20.763Z,19.58
2018-09-17T08:52:20.728Z,19.59
2018-09-17T08:53:20.628Z,19.59
2018-09-17T08:54:20.540Z,19.70
2018-09-17T08:55:20.469Z,19.77
2018-09-17T08:56:20.390Z,19.79
2018-09-17T08:57:20.372Z,19.76
2018-09-17T08:58:20.309Z,19.84
2018-09-17T08:59:20.173Z,19.85
2018-09-17T09:00:20.096Z,19.91
2018-09-17T09:01:20.022Z,19.96
2018-09-17T09:02:19.956Z,19.92
2018-09-17T09:03:19.875Z,20.03
2018-09-17T09:04:19.801Z,20.00
2018-09-17T09:05:19.732Z,20.07
2018-09-17T09:06:19.690Z,20.14
2018-09-17T09:07:19.584Z,20.13
2018-09-17T09:08:19.512Z,20.25
2018-09-17T09:09:19.454Z,20.24
2018-09-17T09:10:19.364Z,20.25
2018-09-17T09:11:19.300Z,20.21
2018-09-17T09:12:19.223Z,20.25
2018-09-17T09:13:19.144Z,20.24
2018-09-17T09:14:19.069Z,20.40
2018-09-17T09:15:18.995Z,20.36
2018-09-17T09:16:18.925Z,20.37
2018-09-17T09:17:18.853Z,20.44
2018-09-17T09:18:18.793Z,20.47
2018-09-17T09:19:18.723Z,20.59
2018-09-17T09:20:18.648Z,20.58
2018-09-17T09:21:18.572Z,20.60
2018-09-17T09:22:18.489Z,20.65
2018-09-17T09:23:18.421Z,20.67
2018-09-17T09:24:18.341Z,20.69
2018-09-17T09:25:18.277Z,20.72
2018-09-17T09:26:18.261Z,20.75
2018-09-17T09:27:18.122Z,20.75
2018-09-17T09:28:18.048Z,20.77
2018-09-17T09:29:17.976Z,20.87
2018-09-17T09:30:17.906Z,20.99
2018-09-17T09:31:17.830Z,20.82
2018-09-17T09:32:17.764Z,20.93
2018-09-17T09:33:17.685Z,21.00
2018-09-17T09:34:17.617Z,21.00
2018-09-17T09:35:17.547Z,21.02
2018-09-17T09:36:17.473Z,21.05
2018-09-17T09:37:17.393Z,21.14
2018-09-17T09:38:17.384Z,21.17
2018-09-17T09:39:17.254Z,21.24
2018-09-17T09:40:17.174Z,21.24
2018-09-17T09:41:17.110Z,21.33
2018-09-17T09:42:17.035Z,21.36
2018-09-17T09:43:16.959Z,21.40
2018-09-17T09:44:16.891Z,21.50
2018-09-17T09:45:16.813Z,21.51
2018-09-17T09:46:16.792Z,21.54
2018-09-17T09:47:16.674Z,21.66
2018-09-17T09:48:16.594Z,21.58
2018-09-17T09:49:16.525Z,21.58
2018-09-17T09:50:16.452Z,21.77
2018-09-17T09:51:16.377Z,21.73
2018-09-17T09:52:16.304Z,21.75
2018-09-17T09:53:16.236Z,21.73
2018-09-17T09:54:16.162Z,21.82
2018-09-17T09:55:16.089Z,21.95
2018-09-17T09:56:16.023Z,21.98
2018-09-17T09:57:15.951Z,21.96
2018-09-17T09:58:15.876Z,21.98
2018-09-17T09:59:15.801Z,22.04
2018-09-17T10:00:15.728Z,22.08
2018-09-17T10:01:15.658Z,22.13
2018-09-17T10:02:15.588Z,22.14
2018-09-17T10:03:15.512Z,22.17
2018-09-17T10:04:15.439Z,22.33
2018-09-17T10:05:15.369Z,22.36
2018-09-17T10:06:15.297Z,22.41
2018-09-17T10:07:15.225Z,22.51
2018-09-17T10:08:15.151Z,22.45
2018-09-17T10:09:15.085Z,22.60
2018-09-17T10:10:15.012Z,22.62
2018-09-17T10:11:14.937Z,22.65
2018-09-17T10:12:14.877Z,22.60
2018-09-17T10:13:14.804Z,22.63
2018-09-17T10:14:14.726Z,22.72
2018-09-17T10:15:14.657Z,22.78
2018-09-17T10:16:14.583Z,22.78
2018-09-17T10:17:14.509Z,22.80
2018-09-17T10:18:14.500Z,22.83
2018-09-17T10:19:14.420Z,22.94
2018-09-17T10:20:14.350Z,23.02
2018-09-17T10:21:14.229Z,23.03
2018-09-17T10:22:14.151Z,23.06
2018-09-17T10:23:14.127Z,23.02
2018-09-17T10:24:14.008Z,23.12
2018-09-17T10:25:13.943Z,23.20
2018-09-17T10:26:13.872Z,23.21
2018-09-17T10:27:13.807Z,23.21
2018-09-17T10:28:13.738Z,23.20
2018-09-17T10:29:13.657Z,23.28
2018-09-17T10:30:13.583Z,23.37
2018-09-17T10:31:13.517Z,23.51
2018-09-17T10:32:13.443Z,23.54
2018-09-17T10:33:13.371Z,23.51
2018-09-17T10:34:13.305Z,23.58
2018-09-17T10:35:13.230Z,23.62
2018-09-17T10:36:13.162Z,23.69
2018-09-17T10:37:13.093Z,23.86
2018-09-17T10:38:13.016Z,23.80
2018-09-17T10:39:12.944Z,23.76
2018-09-17T10:40:12.877Z,23.80
2018-09-17T10:41:12.809Z,23.80
2018-09-17T10:42:12.735Z,23.86
2018-09-17T10:43:12.662Z,23.84
2018-09-17T10:44:12.592Z,23.92
2018-09-17T10:45:12.521Z,23.99
2018-09-17T10:46:12.467Z,23.96
2018-09-17T10:47:12.397Z,24.06
2018-09-17T10:48:12.346Z,24.14
2018-09-17T10:49:12.246Z,24.16
2018-09-17T10:50:12.177Z,24.26
2018-09-17T10:51:12.106Z,24.30
2018-09-17T10:52:12.048Z,24.48
2018-09-17T10:53:11.965Z,24.50
2018-09-17T10:54:11.891Z,24.63
2018-09-17T10:55:11.828Z,24.65
2018-09-17T10:56:11.748Z,24.69
2018-09-17T10:57:11.689Z,24.69
2018-09-17T10:58:11.615Z,24.74
2018-09-17T10:59:11.550Z,24.81
2018-09-17T11:00:11.469Z,24.91
2018-09-17T11:01:11.417Z,24.92
2018-09-17T11:02:11.355Z,25.04
2018-09-17T11:03:11.266Z,25.11
2018-09-17T11:04:11.196Z,25.22
2018-09-17T11:05:11.121Z,25.26
2018-09-17T11:06:11.065Z,25.31
2018-09-17T11:07:11.049Z,25.40
2018-09-17T11:08:10.960Z,25.51
2018-09-17T11:09:10.846Z,25.62
2018-09-17T11:10:10.802Z,25.66
2018-09-17T11:11:10.714Z,25.69
2018-09-17T11:12:10.656Z,25.66
2018-09-17T11:13:10.578Z,25.77
2018-09-17T11:14:10.528Z,25.90
2018-09-17T11:15:10.431Z,26.05
2018-09-17T11:16:10.363Z,26.09
2018-09-17T11:17:10.326Z,26.10
2018-09-17T11:18:10.228Z,26.25
2018-09-17T11:19:10.153Z,26.29
2018-09-17T11:20:10.085Z,26.31
2018-09-17T11:21:10.018Z,26.36
2018-09-17T11:22:09.949Z,26.45
2018-09-17T11:23:09.883Z,26.52
2018-09-17T11:24:09.813Z,26.60
2018-09-17T11:25:09.802Z,26.75
2018-09-17T11:26:09.856Z,26.85
2018-09-17T11:27:09.614Z,26.96
2018-09-17T11:28:09.567Z,27.00
2018-09-17T11:29:09.543Z,27.18
2018-09-17T11:30:09.414Z,27.47
2018-09-17T11:31:09.344Z,27.75
2018-09-17T11:32:09.279Z,28.29
2018-09-17T11:33:09.222Z,28.81
2018-09-17T11:34:09.161Z,29.38
2018-09-17T11:35:09.086Z,29.95
2018-09-17T11:36:09.034Z,30.44
2018-09-17T11:37:08.970Z,30.91
2018-09-17T11:38:08.898Z,31.24
2018-09-17T11:39:08.837Z,31.73
2018-09-17T11:40:08.775Z,32.18
2018-09-17T11:41:08.730Z,32.23
2018-09-17T11:42:08.662Z,32.70
2018-09-17T11:43:08.593Z,32.96
2018-09-17T11:44:08.536Z,33.28
2018-09-17T11:45:08.481Z,33.58
2018-09-17T11:46:08.412Z,33.67
2018-09-17T11:47:08.353Z,33.68
2018-09-17T11:48:08.348Z,33.87
2018-09-17T11:49:08.238Z,34.01
2018-09-17T11:50:08.179Z,34.38
2018-09-17T11:51:08.122Z,34.55
2018-09-17T11:52:08.072Z,34.73
2018-09-17T11:53:08.027Z,35.08
2018-09-17T11:54:08.004Z,35.60
2018-09-17T11:55:07.886Z,35.98
2018-09-17T11:56:07.828Z,36.36
2018-09-17T11:57:07.770Z,36.62
2018-09-17T11:58:07.718Z,36.89
2018-09-17T11:59:07.662Z,37.02
2018-09-17T12:00:07.606Z,37.49
2018-09-17T12:01:07.554Z,37.77
2018-09-17T12:02:07.497Z,38.01
2018-09-17T12:03:07.432Z,38.30
2018-09-17T12:04:07.376Z,38.45
2018-09-17T12:05:07.322Z,38.46
2018-09-17T12:06:07.278Z,37.58
2018-09-17T12:07:07.210Z,37.39
2018-09-17T12:08:07.177Z,37.14
2018-09-17T12:09:07.110Z,37.36
2018-09-17T12:10:07.099Z,37.74
2018-09-17T12:11:06.983Z,37.71
2018-09-17T12:12:06.937Z,37.80
2018-09-17T12:13:06.878Z,37.77
2018-09-17T12:14:06.825Z,37.93
2018-09-17T12:15:06.759Z,38.26
2018-09-17T12:16:06.708Z,38.61
2018-09-17T12:17:06.652Z,38.83
2018-09-17T12:19:38.697Z,39.41
2018-09-17T12:20:38.586Z,39.65
2018-09-17T12:22:42.995Z,39.63
2018-09-17T12:23:42.892Z,39.52
2018-09-17T12:25:46.764Z,39.68
2018-09-17T12:26:46.703Z,39.62
2018-09-17T12:27:46.651Z,39.78
2018-09-17T12:28:46.596Z,40.16
2018-09-17T12:29:46.536Z,40.47
2018-09-17T12:30:46.482Z,40.78
2018-09-17T12:31:46.432Z,41.06
2018-09-17T12:32:46.380Z,41.36
2018-09-17T12:33:46.386Z,41.60
2018-09-17T12:34:46.276Z,41.83
2018-09-17T12:35:46.216Z,42.09
2018-09-17T12:36:46.160Z,41.80
2018-09-17T12:37:46.114Z,41.78
2018-09-17T12:38:46.057Z,41.82
2018-09-17T12:39:46.005Z,41.77
2018-09-17T12:40:45.949Z,41.70
2018-09-17T12:41:45.899Z,41.75
2018-09-17T12:42:45.860Z,41.68
2018-09-17T12:43:45.801Z,41.95
2018-09-17T12:44:45.747Z,42.31
2018-09-17T12:45:45.714Z,41.49
2018-09-17T12:46:45.644Z,39.96
2018-09-17T12:47:45.584Z,39.70
2018-09-17T12:48:45.539Z,39.74
2018-09-17T12:49:45.479Z,39.75
2018-09-17T12:50:45.432Z,39.72
2018-09-17T12:51:45.424Z,40.00
2018-09-17T12:52:45.320Z,40.15
2018-09-17T12:53:45.271Z,40.27
2018-09-17T12:54:45.217Z,40.23
2018-09-17T12:55:45.167Z,40.23
2018-09-17T12:56:45.114Z,40.12
2018-09-17T12:57:45.056Z,39.99
2018-09-17T12:58:45.029Z,39.68
2018-09-17T12:59:44.948Z,39.46
2018-09-17T13:00:44.903Z,39.58